Terminal Aerodrome Forecast
Issued by NWS Chicago, IL

Home | Current Version | Previous Version | Text Only | Print | Product List | Glossary Off
Versions: 1 2 3 4 5 6 7 8 9 10 11 12 13 14 15 16 17 18 19 20 21 22 23

316
FTUS43 KLOT 040259 AAA
TAFRFD
TAF AMD
KRFD 040259Z 0403/0424 23010KT P6SM SCT060 BKN090
     FM040400 24010KT 6SM SHRA VCTS SCT035CB BKN050
      TEMPO 0404/0407 4SM TSRA SCT007CB BKN012
     FM040700 01014G21KT P6SM -SHRA BKN007 OVC012
     FM041000 36017G30KT P6SM SCT007 OVC012
     FM041500 35017G28KT P6SM VCSH BKN020 OVC030
     FM042000 35017G27KT 6SM -SHRA BKN030=

USA.gov is the U.S. government's official web portal to all federal, state and local government web resources and services.